Time;durP1;ratioP1;P1;durP2;ratioP2;P2;SDS_P1;SDS_P2;PMS_P1;PMS_P2;Temp;Humidity;BMP_temperature;BMP_pressure;BME280_temperature;BME280_humidity;BME280_pressure;Samples;Min_cycle;Max_cycle;Signal;HPM_P1;HPM_P2
2021/03/17 00:02:10;;;;;;;3.00;2.20;;;;;;;;;;5037119;28;20265;-64
2021/03/17 00:04:36;;;;;;;3.10;2.03;;;;;;;;;;5036605;28;20256;-64
2021/03/17 00:07:02;;;;;;;2.37;2.07;;;;;;;;;;5036797;28;20424;-63
2021/03/17 00:09:28;;;;;;;1.97;1.77;;;;;;;;;;5036887;28;20184;-66
2021/03/17 00:11:54;;;;;;;2.53;2.10;;;;;;;;;;5033103;28;20629;-65
2021/03/17 00:14:20;;;;;;;2.40;2.20;;;;;;;;;;5038716;28;20831;-63
2021/03/17 00:16:46;;;;;;;2.17;1.60;;;;;;;;;;5043149;28;20457;-64
2021/03/17 00:19:12;;;;;;;2.77;1.80;;;;;;;;;;5021686;28;20624;-63
2021/03/17 00:21:38;;;;;;;2.13;1.90;;;;;;;;;;5050395;28;20228;-65
2021/03/17 00:24:05;;;;;;;3.37;2.10;;;;;;;;;;5040267;28;20176;-63
2021/03/17 00:26:31;;;;;;;2.47;2.27;;;;;;;;;;5028354;28;20331;-64
2021/03/17 00:28:57;;;;;;;2.10;1.87;;;;;;;;;;5038599;28;20295;-63
2021/03/17 00:31:23;;;;;;;1.90;1.80;;;;;;;;;;5046028;28;20193;-64
2021/03/17 00:33:49;;;;;;;2.77;2.10;;;;;;;;;;5043356;28;20268;-64
2021/03/17 00:36:15;;;;;;;3.43;2.50;;;;;;;;;;5042074;28;20333;-63
2021/03/17 00:38:43;;;;;;;2.77;2.13;;;;;;;;;;5033861;28;21608;-63
2021/03/17 00:41:09;;;;;;;2.73;2.37;;;;;;;;;;5041635;28;20199;-63
2021/03/17 00:43:35;;;;;;;2.50;2.10;;;;;;;;;;5039130;28;20203;-63
2021/03/17 00:46:01;;;;;;;4.57;2.33;;;;;;;;;;5034339;28;20209;-64
2021/03/17 00:48:27;;;;;;;3.30;2.60;;;;;;;;;;5014488;28;20182;-63
2021/03/17 00:50:53;;;;;;;3.03;2.70;;;;;;;;;;5013392;28;20636;-64
2021/03/17 00:53:19;;;;;;;3.73;2.60;;;;;;;;;;5018077;28;20248;-64
2021/03/17 00:55:46;;;;;;;3.40;2.40;;;;;;;;;;5036873;28;20201;-63
2021/03/17 00:58:12;;;;;;;3.40;2.50;;;;;;;;;;5052234;28;20177;-66
2021/03/17 01:00:38;;;;;;;3.80;2.57;;;;;;;;;;5043028;28;20580;-64
2021/03/17 01:03:04;;;;;;;2.73;2.53;;;;;;;;;;5031683;28;20181;-65
2021/03/17 01:05:31;;;;;;;3.00;2.57;;;;;;;;;;5049076;28;20233;-64
2021/03/17 01:07:58;;;;;;;2.60;2.40;;;;;;;;;;5038982;28;20192;-65
2021/03/17 01:10:28;;;;;;;3.23;2.83;;;;;;;;;;5050815;28;20310;-65
2021/03/17 01:12:54;;;;;;;3.07;2.70;;;;;;;;;;5029303;28;20192;-64
2021/03/17 01:15:20;;;;;;;3.87;2.90;;;;;;;;;;5045366;28;20204;-64
2021/03/17 01:17:47;;;;;;;4.60;2.77;;;;;;;;;;5046690;28;20189;-64
2021/03/17 01:20:13;;;;;;;2.87;2.40;;;;;;;;;;5032726;28;20190;-64
2021/03/17 01:22:39;;;;;;;3.17;2.60;;;;;;;;;;5040558;28;20181;-64
2021/03/17 01:25:08;;;;;;;4.37;2.80;;;;;;;;;;5036083;28;20260;-64
2021/03/17 01:27:34;;;;;;;4.13;2.70;;;;;;;;;;5019386;28;20712;-64
2021/03/17 01:30:01;;;;;;;3.13;2.83;;;;;;;;;;5039434;28;20709;-63
2021/03/17 01:32:27;;;;;;;2.70;2.50;;;;;;;;;;5038241;28;20189;-63
2021/03/17 01:34:53;;;;;;;3.67;2.83;;;;;;;;;;5032152;28;20185;-64
2021/03/17 01:37:19;;;;;;;3.67;2.77;;;;;;;;;;5028526;28;20196;-63
2021/03/17 01:39:45;;;;;;;3.53;2.90;;;;;;;;;;5045612;28;20196;-64
2021/03/17 01:42:11;;;;;;;4.17;3.00;;;;;;;;;;5039841;28;20209;-63
2021/03/17 01:44:37;;;;;;;3.00;2.70;;;;;;;;;;5040631;28;20676;-64
2021/03/17 01:47:03;;;;;;;4.40;3.40;;;;;;;;;;5019277;28;20173;-64
2021/03/17 01:49:29;;;;;;;4.13;3.07;;;;;;;;;;5025884;28;20205;-64
2021/03/17 01:51:55;;;;;;;3.17;2.87;;;;;;;;;;5026793;28;20196;-64
2021/03/17 01:54:21;;;;;;;4.37;3.40;;;;;;;;;;5034877;28;20177;-63
2021/03/17 01:56:47;;;;;;;4.67;3.50;;;;;;;;;;5038500;28;20231;-64
2021/03/17 01:59:14;;;;;;;3.50;3.20;;;;;;;;;;5031667;28;20596;-64
2021/03/17 02:01:40;;;;;;;3.93;3.43;;;;;;;;;;5015471;28;20454;-65
2021/03/17 02:04:06;;;;;;;4.13;3.30;;;;;;;;;;5036799;28;20857;-64
2021/03/17 02:06:32;;;;;;;3.80;3.50;;;;;;;;;;5032252;28;20510;-64
2021/03/17 02:08:58;;;;;;;4.23;3.40;;;;;;;;;;5037275;28;20186;-64
2021/03/17 02:11:24;;;;;;;4.23;3.40;;;;;;;;;;5023890;28;20645;-64
2021/03/17 02:14:12;;;;;;;3.00;2.70;;;;;;;;;;5031434;28;20695;-64
2021/03/17 02:17:08;;;;;;;5.80;3.57;;;;;;;;;;5049742;28;20209;-63
2021/03/17 02:19:46;;;;;;;3.80;3.40;;;;;;;;;;5022318;28;20193;-64
2021/03/17 02:22:18;;;;;;;5.30;3.70;;;;;;;;;;5049470;28;20259;-64
2021/03/17 02:24:47;;;;;;;3.60;3.10;;;;;;;;;;5035390;28;20180;-64
2021/03/17 02:27:23;;;;;;;3.60;3.30;;;;;;;;;;5036570;28;20486;-63
2021/03/17 02:30:01;;;;;;;5.20;3.13;;;;;;;;;;5029235;28;20456;-64
2021/03/17 02:32:30;;;;;;;3.67;3.30;;;;;;;;;;5040250;28;20438;-63
2021/03/17 02:34:59;;;;;;;4.20;3.37;;;;;;;;;;5039257;28;20174;-63
2021/03/17 02:37:26;;;;;;;3.70;3.00;;;;;;;;;;5025039;28;20992;-66
2021/03/17 02:39:55;;;;;;;4.27;3.70;;;;;;;;;;5041755;28;20178;-64
2021/03/17 02:42:30;;;;;;;4.17;3.50;;;;;;;;;;5015775;28;20641;-64
2021/03/17 02:45:05;;;;;;;4.57;3.63;;;;;;;;;;5024670;28;20175;-64
2021/03/17 02:47:33;;;;;;;4.23;3.50;;;;;;;;;;5024079;28;20650;-64
2021/03/17 02:50:00;;;;;;;5.40;4.30;;;;;;;;;;5039032;28;20545;-64
2021/03/17 02:52:30;;;;;;;5.87;4.30;;;;;;;;;;5038315;28;20749;-63
2021/03/17 02:54:57;;;;;;;7.17;4.43;;;;;;;;;;5041643;28;20514;-64
2021/03/17 02:57:25;;;;;;;7.67;5.80;;;;;;;;;;5044916;28;20288;-64
2021/03/17 02:59:52;;;;;;;6.97;4.67;;;;;;;;;;5037298;28;20197;-64
2021/03/17 03:02:19;;;;;;;7.73;6.13;;;;;;;;;;5037229;28;20419;-64
2021/03/17 03:04:46;;;;;;;7.00;5.40;;;;;;;;;;5047576;28;20185;-66
2021/03/17 03:07:12;;;;;;;9.03;5.43;;;;;;;;;;5044471;28;20487;-64
2021/03/17 03:09:39;;;;;;;8.13;5.27;;;;;;;;;;5041738;28;20188;-64
2021/03/17 03:12:06;;;;;;;7.37;5.87;;;;;;;;;;5018334;28;20196;-64
2021/03/17 03:14:33;;;;;;;6.90;5.60;;;;;;;;;;5039489;28;20435;-64
2021/03/17 03:17:00;;;;;;;10.47;5.77;;;;;;;;;;5017563;28;20197;-64
2021/03/17 03:19:28;;;;;;;7.17;5.63;;;;;;;;;;5040775;28;20435;-64
2021/03/17 03:21:55;;;;;;;7.30;5.00;;;;;;;;;;5043293;28;20427;-63
2021/03/17 03:24:22;;;;;;;11.33;5.67;;;;;;;;;;5043141;28;20443;-64
2021/03/17 03:26:55;;;;;;;6.07;5.20;;;;;;;;;;5043482;28;20897;-64
2021/03/17 03:29:21;;;;;;;6.87;5.50;;;;;;;;;;5031449;28;20260;-64
2021/03/17 03:31:48;;;;;;;7.07;4.87;;;;;;;;;;5025804;28;20189;-64
2021/03/17 03:34:14;;;;;;;6.07;4.67;;;;;;;;;;5059505;28;20192;-64
2021/03/17 03:36:40;;;;;;;7.70;5.10;;;;;;;;;;5047741;28;20266;-64
2021/03/17 03:39:06;;;;;;;6.60;4.17;;;;;;;;;;5027949;28;20186;-64
2021/03/17 03:41:32;;;;;;;7.27;5.77;;;;;;;;;;5035508;28;20188;-64
2021/03/17 03:43:59;;;;;;;7.17;4.83;;;;;;;;;;5022798;28;20256;-64
2021/03/17 03:46:25;;;;;;;4.97;4.33;;;;;;;;;;5044099;28;20424;-64
2021/03/17 03:48:51;;;;;;;7.47;5.40;;;;;;;;;;5034610;28;20244;-64
2021/03/17 03:51:21;;;;;;;5.60;4.90;;;;;;;;;;5038944;28;20186;-64
2021/03/17 03:53:47;;;;;;;8.27;5.27;;;;;;;;;;5047531;28;20420;-64
2021/03/17 03:56:16;;;;;;;5.03;4.33;;;;;;;;;;5048006;28;20494;-64
2021/03/17 03:58:49;;;;;;;5.27;4.40;;;;;;;;;;5035368;28;20486;-64
2021/03/17 04:01:26;;;;;;;4.20;3.80;;;;;;;;;;5039774;28;20417;-63
2021/03/17 04:03:54;;;;;;;7.87;4.27;;;;;;;;;;5031551;28;20417;-64
2021/03/17 04:06:20;;;;;;;7.87;4.47;;;;;;;;;;5031370;28;20511;-64
2021/03/17 04:08:48;;;;;;;4.17;3.77;;;;;;;;;;5028280;28;20425;-64
2021/03/17 04:11:14;;;;;;;4.60;3.67;;;;;;;;;;5031947;28;20705;-63
2021/03/17 04:13:41;;;;;;;5.07;3.67;;;;;;;;;;5039643;28;20511;-63
2021/03/17 04:16:08;;;;;;;3.83;3.43;;;;;;;;;;5030738;28;20201;-63
2021/03/17 04:18:36;;;;;;;3.97;3.43;;;;;;;;;;5046368;28;20432;-64
2021/03/17 04:21:06;;;;;;;4.50;3.07;;;;;;;;;;5033424;28;20180;-64
2021/03/17 04:23:35;;;;;;;3.20;2.90;;;;;;;;;;5025888;28;20432;-64
2021/03/17 04:26:01;;;;;;;3.80;3.10;;;;;;;;;;5021572;28;20210;-64
2021/03/17 04:37:40;;;;;;;3.80;3.50;;;;;;;;;;5045059;28;20560;-64
2021/03/17 04:40:07;;;;;;;4.30;3.90;;;;;;;;;;5020203;28;20202;-64
2021/03/17 04:42:33;;;;;;;4.23;3.80;;;;;;;;;;5036394;28;20642;-64
2021/03/17 04:44:59;;;;;;;3.90;3.50;;;;;;;;;;5046904;28;20424;-64
2021/03/17 04:47:26;;;;;;;5.07;4.07;;;;;;;;;;5033714;28;20435;-64
2021/03/17 04:49:53;;;;;;;4.57;3.53;;;;;;;;;;5042090;28;20478;-64
2021/03/17 04:52:20;;;;;;;4.87;3.97;;;;;;;;;;5050543;28;20458;-64
2021/03/17 04:54:46;;;;;;;4.60;3.87;;;;;;;;;;5042477;28;20174;-64
2021/03/17 04:57:19;;;;;;;4.47;3.97;;;;;;;;;;5037037;28;20447;-64
2021/03/17 04:59:46;;;;;;;3.73;3.43;;;;;;;;;;5017761;28;20448;-64
2021/03/17 05:02:12;;;;;;;4.00;3.60;;;;;;;;;;5042454;28;20182;-64
2021/03/17 05:04:39;;;;;;;5.77;4.30;;;;;;;;;;5044863;28;20632;-63
2021/03/17 05:07:06;;;;;;;4.10;3.70;;;;;;;;;;5042580;28;20999;-63
2021/03/17 05:09:33;;;;;;;4.67;4.27;;;;;;;;;;5036248;28;20435;-66
2021/03/17 05:12:03;;;;;;;4.10;3.70;;;;;;;;;;5025894;28;20653;-64
2021/03/17 05:14:29;;;;;;;4.30;3.73;;;;;;;;;;5024909;28;20423;-64
2021/03/17 05:16:56;;;;;;;4.17;3.77;;;;;;;;;;5040580;28;20459;-64
2021/03/17 05:19:22;;;;;;;4.80;4.40;;;;;;;;;;5040027;28;20833;-64
2021/03/17 05:21:49;;;;;;;4.30;3.90;;;;;;;;;;5030034;28;20184;-64
2021/03/17 05:24:15;;;;;;;4.90;4.40;;;;;;;;;;5047802;28;20181;-64
2021/03/17 05:26:41;;;;;;;4.50;4.10;;;;;;;;;;5037535;28;20209;-64
2021/03/17 05:29:08;;;;;;;5.17;4.10;;;;;;;;;;5048957;28;20184;-64
2021/03/17 05:31:34;;;;;;;5.33;4.83;;;;;;;;;;5043824;28;20658;-64
2021/03/17 05:34:00;;;;;;;5.50;4.13;;;;;;;;;;5018575;28;20794;-64
2021/03/17 05:36:26;;;;;;;4.87;4.37;;;;;;;;;;5040102;28;20468;-64
2021/03/17 05:38:53;;;;;;;5.60;5.00;;;;;;;;;;5032924;28;20515;-64
2021/03/17 05:41:19;;;;;;;5.37;4.87;;;;;;;;;;5016173;28;20676;-63
2021/03/17 05:43:46;;;;;;;5.00;4.50;;;;;;;;;;5050956;28;20178;-63
2021/03/17 05:46:12;;;;;;;5.60;5.00;;;;;;;;;;5022432;28;20626;-64
2021/03/17 05:48:40;;;;;;;5.63;4.90;;;;;;;;;;5033738;28;20911;-64
2021/03/17 05:51:06;;;;;;;5.37;4.87;;;;;;;;;;5024548;28;20431;-63
2021/03/17 05:53:32;;;;;;;5.13;4.63;;;;;;;;;;5033326;28;20424;-64
2021/03/17 05:56:02;;;;;;;6.37;5.27;;;;;;;;;;5043587;28;20550;-64
2021/03/17 05:58:29;;;;;;;6.37;5.23;;;;;;;;;;5028867;28;20455;-64
2021/03/17 06:00:55;;;;;;;6.47;5.43;;;;;;;;;;5040152;28;20598;-64
2021/03/17 06:03:21;;;;;;;5.47;4.97;;;;;;;;;;5046933;28;20519;-64
2021/03/17 06:05:48;;;;;;;6.87;5.87;;;;;;;;;;5060797;28;20486;-64
2021/03/17 06:08:14;;;;;;;5.73;4.93;;;;;;;;;;5039123;28;20176;-64
2021/03/17 06:10:41;;;;;;;5.30;4.80;;;;;;;;;;5059516;28;20423;-64
2021/03/17 06:13:09;;;;;;;5.70;5.10;;;;;;;;;;5049370;28;20180;-65
2021/03/17 06:15:36;;;;;;;5.17;4.60;;;;;;;;;;5025856;28;20222;-64
2021/03/17 06:18:06;;;;;;;7.60;5.20;;;;;;;;;;5038516;28;20187;-64
2021/03/17 06:20:32;;;;;;;5.90;5.07;;;;;;;;;;5069367;28;20384;-64
2021/03/17 06:22:59;;;;;;;5.40;4.60;;;;;;;;;;5050119;28;20515;-64
2021/03/17 06:25:25;;;;;;;5.90;4.90;;;;;;;;;;5063013;28;20243;-64
2021/03/17 06:27:51;;;;;;;5.97;5.20;;;;;;;;;;5041065;28;20514;-64
2021/03/17 06:30:17;;;;;;;5.53;4.93;;;;;;;;;;5045771;28;20317;-64
2021/03/17 06:32:43;;;;;;;7.30;5.43;;;;;;;;;;5039800;28;20244;-64
2021/03/17 06:35:16;;;;;;;5.13;4.50;;;;;;;;;;5048588;28;20570;-64
2021/03/17 06:37:43;;;;;;;5.40;4.73;;;;;;;;;;5050036;28;20750;-64
2021/03/17 06:40:26;;;;;;;5.50;4.70;;;;;;;;;;5048874;28;20667;-64
2021/03/17 06:42:53;;;;;;;6.50;4.80;;;;;;;;;;5064509;28;20441;-64
2021/03/17 06:45:29;;;;;;;4.77;4.27;;;;;;;;;;5053332;28;20447;-64
2021/03/17 06:47:55;;;;;;;5.53;4.73;;;;;;;;;;5028534;28;20494;-64
2021/03/17 06:50:27;;;;;;;5.47;4.93;;;;;;;;;;5036635;28;20813;-65
2021/03/17 06:52:53;;;;;;;6.33;5.50;;;;;;;;;;5046287;28;20189;-64
2021/03/17 06:55:20;;;;;;;5.30;4.77;;;;;;;;;;5038757;28;20432;-64
2021/03/17 06:57:47;;;;;;;7.43;4.90;;;;;;;;;;5039782;28;20181;-64
2021/03/17 07:00:22;;;;;;;5.97;4.97;;;;;;;;;;5028089;28;20181;-65
2021/03/17 07:02:51;;;;;;;5.67;4.77;;;;;;;;;;5026161;28;20184;-64
2021/03/17 07:05:17;;;;;;;7.97;5.40;;;;;;;;;;5048707;28;20696;-64
2021/03/17 07:07:47;;;;;;;5.73;5.20;;;;;;;;;;5052545;28;20177;-65
2021/03/17 07:10:13;;;;;;;6.97;5.83;;;;;;;;;;5061536;28;20503;-65
2021/03/17 07:12:39;;;;;;;9.27;5.57;;;;;;;;;;5042591;28;20808;-63
2021/03/17 07:15:09;;;;;;;8.90;5.47;;;;;;;;;;5063312;28;20218;-64
2021/03/17 07:17:35;;;;;;;7.13;5.43;;;;;;;;;;5033350;28;20545;-64
2021/03/17 07:20:06;;;;;;;6.97;5.30;;;;;;;;;;5034473;28;20438;-63
2021/03/17 07:22:33;;;;;;;10.37;5.03;;;;;;;;;;5038335;28;20423;-63
2021/03/17 07:25:04;;;;;;;6.30;5.40;;;;;;;;;;5061454;28;20187;-64
2021/03/17 07:27:31;;;;;;;10.10;5.83;;;;;;;;;;5051734;28;20419;-64
2021/03/17 07:30:01;;;;;;;8.10;5.37;;;;;;;;;;5068969;28;20487;-63
2021/03/17 07:32:28;;;;;;;6.40;4.83;;;;;;;;;;5034308;28;20447;-64
2021/03/17 07:34:54;;;;;;;6.07;4.33;;;;;;;;;;5051590;28;20412;-64
2021/03/17 07:37:26;;;;;;;7.57;5.00;;;;;;;;;;5051010;28;20209;-63
2021/03/17 07:39:56;;;;;;;6.73;4.57;;;;;;;;;;5029020;28;20182;-63
2021/03/17 07:42:23;;;;;;;5.80;4.23;;;;;;;;;;5010359;28;20420;-63
2021/03/17 07:44:50;;;;;;;6.20;4.13;;;;;;;;;;5029907;28;20528;-64
2021/03/17 07:47:16;;;;;;;5.50;4.13;;;;;;;;;;5027246;28;20431;-64
2021/03/17 07:49:43;;;;;;;4.57;4.07;;;;;;;;;;5051699;28;20193;-63
2021/03/17 07:52:14;;;;;;;4.13;3.23;;;;;;;;;;5039920;28;20211;-64
2021/03/17 07:54:44;;;;;;;4.13;3.57;;;;;;;;;;5050752;28;20915;-63
2021/03/17 07:57:11;;;;;;;4.57;3.50;;;;;;;;;;5051691;28;20312;-65
2021/03/17 07:59:37;;;;;;;6.40;3.40;;;;;;;;;;5037822;28;20452;-64
2021/03/17 08:02:03;;;;;;;3.73;3.27;;;;;;;;;;5024434;28;20478;-64
2021/03/17 08:04:30;;;;;;;4.90;3.73;;;;;;;;;;5050045;28;20495;-64
2021/03/17 08:07:06;;;;;;;3.67;3.20;;;;;;;;;;5002680;28;20578;-64
2021/03/17 08:09:33;;;;;;;3.90;2.97;;;;;;;;;;5040094;28;20471;-65
2021/03/17 08:12:01;;;;;;;4.43;3.17;;;;;;;;;;5034345;28;20424;-66
2021/03/17 08:14:28;;;;;;;4.80;2.97;;;;;;;;;;5033533;28;20728;-64
2021/03/17 08:16:54;;;;;;;3.27;2.97;;;;;;;;;;5020313;28;20304;-65
2021/03/17 08:19:20;;;;;;;3.80;3.20;;;;;;;;;;5050764;28;20279;-64
2021/03/17 08:21:51;;;;;;;4.13;2.90;;;;;;;;;;5032484;28;20848;-63
2021/03/17 08:24:38;;;;;;;3.57;2.83;;;;;;;;;;5001666;28;20435;-63
2021/03/17 08:27:07;;;;;;;3.40;2.87;;;;;;;;;;5028957;28;20497;-66
2021/03/17 08:29:37;;;;;;;2.53;2.30;;;;;;;;;;5044333;28;20424;-63
2021/03/17 08:32:03;;;;;;;3.17;2.53;;;;;;;;;;5034664;28;20464;-63
2021/03/17 08:34:31;;;;;;;3.97;2.33;;;;;;;;;;5045498;28;20963;-64
2021/03/17 08:37:01;;;;;;;4.43;2.10;;;;;;;;;;5032534;28;20582;-63
2021/03/17 08:39:30;;;;;;;4.37;2.50;;;;;;;;;;5052773;28;20177;-63
2021/03/17 08:42:00;;;;;;;5.73;2.70;;;;;;;;;;5049878;28;20659;-63
2021/03/17 08:44:27;;;;;;;3.03;2.50;;;;;;;;;;5049586;28;20176;-63
2021/03/17 08:46:54;;;;;;;2.70;2.20;;;;;;;;;;5050088;28;20447;-63
2021/03/17 08:49:35;;;;;;;2.50;2.20;;;;;;;;;;5031179;28;20254;-64
2021/03/17 08:52:06;;;;;;;3.83;2.50;;;;;;;;;;5040613;28;20435;-63
2021/03/17 08:54:37;;;;;;;4.47;2.50;;;;;;;;;;5050179;28;20388;-64
2021/03/17 08:57:03;;;;;;;3.07;2.10;;;;;;;;;;5031960;28;20481;-63
2021/03/17 08:59:42;;;;;;;2.70;2.07;;;;;;;;;;5042987;28;20177;-63
2021/03/17 09:02:29;;;;;;;5.27;2.43;;;;;;;;;;5047847;28;20267;-63
2021/03/17 09:04:59;;;;;;;3.83;2.13;;;;;;;;;;5070078;28;20635;-63
2021/03/17 09:07:29;;;;;;;2.13;1.77;;;;;;;;;;5032783;28;20203;-66
2021/03/17 09:09:56;;;;;;;3.30;2.13;;;;;;;;;;5046147;28;20192;-63
2021/03/17 09:12:25;;;;;;;2.00;1.70;;;;;;;;;;5038575;28;20423;-63
2021/03/17 09:14:51;;;;;;;2.07;1.77;;;;;;;;;;5032541;28;20435;-63
2021/03/17 09:17:28;;;;;;;2.20;2.00;;;;;;;;;;5022484;28;20205;-63
2021/03/17 09:19:55;;;;;;;3.33;2.47;;;;;;;;;;5067341;28;20145;-63
2021/03/17 09:22:31;;;;;;;2.33;1.87;;;;;;;;;;5046624;28;20420;-63
2021/03/17 09:24:57;;;;;;;2.33;2.10;;;;;;;;;;5049422;28;20410;-63
2021/03/17 09:27:23;;;;;;;6.97;1.90;;;;;;;;;;5049760;28;20412;-63
2021/03/17 09:29:50;;;;;;;2.53;2.00;;;;;;;;;;5049525;28;20506;-63
2021/03/17 09:32:17;;;;;;;3.07;1.90;;;;;;;;;;5037385;28;20185;-63
2021/03/17 09:34:44;;;;;;;2.43;1.87;;;;;;;;;;5049193;28;20184;-63
2021/03/17 09:37:11;;;;;;;4.70;2.37;;;;;;;;;;5031018;28;21090;-63
2021/03/17 09:39:39;;;;;;;3.07;1.77;;;;;;;;;;5050271;28;20434;-63
2021/03/17 09:42:06;;;;;;;2.23;1.83;;;;;;;;;;5030691;28;20515;-63
2021/03/17 09:44:32;;;;;;;3.53;2.30;;;;;;;;;;5042182;28;20420;-63
2021/03/17 09:46:58;;;;;;;3.83;2.13;;;;;;;;;;5054310;28;20954;-64
2021/03/17 09:49:25;;;;;;;4.77;1.87;;;;;;;;;;5047198;28;20243;-63
2021/03/17 09:51:53;;;;;;;2.90;1.63;;;;;;;;;;5047669;28;20832;-63
2021/03/17 09:54:22;;;;;;;6.23;2.20;;;;;;;;;;5029490;28;20718;-64
2021/03/17 09:56:49;;;;;;;3.23;2.23;;;;;;;;;;5049859;28;20197;-63
2021/03/17 09:59:29;;;;;;;2.40;2.10;;;;;;;;;;5048653;28;20498;-65
2021/03/17 10:02:02;;;;;;;2.57;1.70;;;;;;;;;;5030588;28;20461;-63
2021/03/17 10:04:44;;;;;;;2.47;1.60;;;;;;;;;;5049017;28;20166;-63
2021/03/17 10:07:12;;;;;;;3.87;1.63;;;;;;;;;;5049344;28;20239;-66
2021/03/17 10:09:38;;;;;;;2.47;1.80;;;;;;;;;;5062593;28;20191;-65
2021/03/17 10:12:04;;;;;;;2.27;1.60;;;;;;;;;;5031872;28;20543;-63
2021/03/17 10:14:30;;;;;;;2.67;1.90;;;;;;;;;;5049688;28;20476;-66
2021/03/17 10:16:56;;;;;;;2.43;1.60;;;;;;;;;;5050257;28;20459;-64
2021/03/17 10:19:22;;;;;;;4.83;1.60;;;;;;;;;;5049233;28;20498;-63
2021/03/17 10:21:49;;;;;;;4.77;1.60;;;;;;;;;;5031481;28;20284;-63
2021/03/17 10:24:16;;;;;;;3.83;1.60;;;;;;;;;;5049472;28;20185;-63
2021/03/17 10:26:42;;;;;;;3.03;1.57;;;;;;;;;;5048727;28;20260;-63
2021/03/17 10:29:08;;;;;;;2.30;1.90;;;;;;;;;;5031611;28;20454;-63
2021/03/17 10:31:35;;;;;;;2.30;1.60;;;;;;;;;;5048940;28;20177;-63
2021/03/17 10:34:02;;;;;;;1.77;1.50;;;;;;;;;;5030457;28;20551;-63
2021/03/17 10:36:36;;;;;;;2.70;1.70;;;;;;;;;;5033656;28;20222;-63
2021/03/17 10:39:03;;;;;;;2.43;1.60;;;;;;;;;;5044977;28;20210;-63
2021/03/17 10:41:46;;;;;;;3.13;1.70;;;;;;;;;;5048603;28;20273;-63
2021/03/17 10:44:13;;;;;;;1.90;1.40;;;;;;;;;;5061132;28;20167;-64
2021/03/17 10:46:58;;;;;;;2.10;1.50;;;;;;;;;;5055037;28;20226;-63
2021/03/17 10:49:24;;;;;;;1.63;1.40;;;;;;;;;;5071918;28;20192;-63
2021/03/17 10:51:53;;;;;;;2.83;1.67;;;;;;;;;;5054423;28;20251;-63
2021/03/17 10:54:35;;;;;;;1.80;1.47;;;;;;;;;;5070866;28;20550;-64
2021/03/17 10:57:01;;;;;;;3.63;1.70;;;;;;;;;;5067285;28;20674;-63
2021/03/17 10:59:32;;;;;;;4.10;1.80;;;;;;;;;;5052237;28;20173;-63
2021/03/17 11:02:16;;;;;;;5.10;1.93;;;;;;;;;;5023962;28;20588;-63
2021/03/17 11:05:01;;;;;;;2.10;1.30;;;;;;;;;;5053141;28;20783;-64
2021/03/17 11:07:27;;;;;;;2.47;1.50;;;;;;;;;;5034949;28;20181;-63
2021/03/17 11:09:53;;;;;;;1.37;1.27;;;;;;;;;;5033292;28;20636;-63
2021/03/17 11:12:19;;;;;;;1.63;1.40;;;;;;;;;;5033355;28;20503;-64
2021/03/17 11:14:45;;;;;;;5.70;1.60;;;;;;;;;;5067982;28;20235;-63
2021/03/17 11:17:12;;;;;;;1.30;1.20;;;;;;;;;;5046458;28;20197;-63
2021/03/17 11:19:38;;;;;;;2.20;1.40;;;;;;;;;;5054904;28;20419;-63
2021/03/17 11:22:04;;;;;;;2.50;1.40;;;;;;;;;;5062183;28;20276;-63
2021/03/17 11:24:30;;;;;;;1.53;1.00;;;;;;;;;;5050339;28;20656;-65
2021/03/17 11:26:56;;;;;;;3.00;1.50;;;;;;;;;;5028815;28;20239;-63
2021/03/17 11:29:22;;;;;;;2.57;1.27;;;;;;;;;;5050231;28;20215;-63
2021/03/17 11:31:50;;;;;;;2.43;1.63;;;;;;;;;;5046154;28;20356;-63
2021/03/17 11:34:16;;;;;;;2.00;1.37;;;;;;;;;;5034896;28;20209;-63
2021/03/17 11:36:42;;;;;;;2.07;1.37;;;;;;;;;;5054262;28;20290;-63
2021/03/17 11:39:10;;;;;;;4.03;1.30;;;;;;;;;;5032059;28;20175;-63
2021/03/17 11:41:38;;;;;;;3.87;1.50;;;;;;;;;;5063285;28;20168;-63
2021/03/17 11:44:04;;;;;;;2.67;1.50;;;;;;;;;;5051529;28;20169;-64
2021/03/17 11:46:30;;;;;;;3.87;1.63;;;;;;;;;;5028052;28;20185;-63
2021/03/17 11:48:56;;;;;;;7.83;1.93;;;;;;;;;;5052239;28;20265;-63
2021/03/17 11:51:23;;;;;;;3.20;1.30;;;;;;;;;;5051239;28;20243;-64
2021/03/17 11:53:49;;;;;;;2.37;1.33;;;;;;;;;;5033497;28;20196;-63
2021/03/17 11:56:17;;;;;;;5.47;2.00;;;;;;;;;;5040753;28;20197;-63
2021/03/17 11:58:43;;;;;;;3.97;1.70;;;;;;;;;;5037920;28;20177;-63
2021/03/17 12:01:10;;;;;;;2.93;1.83;;;;;;;;;;5066616;28;20218;-66
2021/03/17 12:03:36;;;;;;;2.70;1.77;;;;;;;;;;5049966;28;20181;-63
2021/03/17 12:06:02;;;;;;;4.33;1.37;;;;;;;;;;5045367;28;20697;-63
2021/03/17 12:08:28;;;;;;;1.63;1.17;;;;;;;;;;5036407;28;20225;-63
2021/03/17 12:10:55;;;;;;;4.40;1.47;;;;;;;;;;5058155;28;20185;-63
2021/03/17 12:13:22;;;;;;;2.60;1.70;;;;;;;;;;5036550;28;20288;-66
2021/03/17 12:15:48;;;;;;;2.40;1.30;;;;;;;;;;5045630;28;20185;-64
2021/03/17 12:18:14;;;;;;;2.37;1.30;;;;;;;;;;5059229;28;20172;-63
2021/03/17 12:20:41;;;;;;;3.17;1.60;;;;;;;;;;5071081;28;20222;-63
2021/03/17 12:23:07;;;;;;;1.40;1.30;;;;;;;;;;5054763;28;20260;-65
2021/03/17 12:25:33;;;;;;;2.20;1.50;;;;;;;;;;5040280;28;20257;-63
2021/03/17 12:27:59;;;;;;;3.23;1.27;;;;;;;;;;5058173;28;20181;-63
2021/03/17 12:30:26;;;;;;;2.43;1.47;;;;;;;;;;5050300;28;20240;-63
2021/03/17 12:32:53;;;;;;;2.63;1.60;;;;;;;;;;5063226;28;20184;-63
2021/03/17 12:35:20;;;;;;;2.93;1.50;;;;;;;;;;5034969;28;20177;-63
2021/03/17 12:37:47;;;;;;;2.47;1.40;;;;;;;;;;5059836;28;20777;-63
2021/03/17 12:40:14;;;;;;;2.03;1.53;;;;;;;;;;5051427;28;20185;-64
2021/03/17 12:42:41;;;;;;;2.90;1.50;;;;;;;;;;5042413;28;20196;-64
2021/03/17 12:45:08;;;;;;;3.13;1.40;;;;;;;;;;5027288;28;20204;-66
2021/03/17 12:47:34;;;;;;;4.03;1.53;;;;;;;;;;5048892;28;20227;-63
2021/03/17 12:50:01;;;;;;;3.03;1.33;;;;;;;;;;5050600;28;20200;-63
2021/03/17 12:52:27;;;;;;;1.90;1.30;;;;;;;;;;5030523;28;20289;-64
2021/03/17 12:54:53;;;;;;;4.03;1.83;;;;;;;;;;5050139;28;20188;-64
2021/03/17 12:57:19;;;;;;;1.30;1.00;;;;;;;;;;5050099;28;20201;-63
2021/03/17 12:59:45;;;;;;;2.93;1.40;;;;;;;;;;5069495;28;20165;-63
2021/03/17 13:02:11;;;;;;;2.13;1.10;;;;;;;;;;5058248;28;20191;-64
2021/03/17 13:04:37;;;;;;;5.03;1.23;;;;;;;;;;5049850;28;20201;-63
2021/03/17 13:07:03;;;;;;;2.03;1.30;;;;;;;;;;5050498;28;20460;-63
2021/03/17 13:09:29;;;;;;;2.10;1.20;;;;;;;;;;5066459;28;20176;-66
2021/03/17 13:11:56;;;;;;;2.20;1.20;;;;;;;;;;5056019;28;20185;-64
2021/03/17 13:14:25;;;;;;;5.17;1.57;;;;;;;;;;5058092;28;20818;-63
2021/03/17 13:16:54;;;;;;;2.83;1.20;;;;;;;;;;5050157;28;20219;-63
2021/03/17 13:19:20;;;;;;;2.93;1.20;;;;;;;;;;5053782;28;20173;-64
2021/03/17 13:21:48;;;;;;;2.80;1.30;;;;;;;;;;5048996;28;20196;-63
2021/03/17 13:24:14;;;;;;;4.33;1.10;;;;;;;;;;5079755;28;20177;-64
2021/03/17 13:26:41;;;;;;;3.13;1.30;;;;;;;;;;5054317;28;20189;-64
2021/03/17 13:29:07;;;;;;;2.27;1.30;;;;;;;;;;5064829;28;20169;-63
2021/03/17 13:31:33;;;;;;;2.30;1.43;;;;;;;;;;5040203;28;20186;-63
2021/03/17 13:33:59;;;;;;;2.00;1.13;;;;;;;;;;5049458;28;20173;-63
2021/03/17 13:36:25;;;;;;;2.73;1.40;;;;;;;;;;5034945;28;20224;-64
2021/03/17 13:38:51;;;;;;;1.77;1.00;;;;;;;;;;5060662;28;20169;-64
2021/03/17 13:41:17;;;;;;;4.10;1.73;;;;;;;;;;5058199;28;20199;-63
2021/03/17 13:43:43;;;;;;;1.20;1.07;;;;;;;;;;5049732;28;20916;-64
2021/03/17 13:46:11;;;;;;;1.13;1.00;;;;;;;;;;5029346;28;20522;-64
2021/03/17 13:48:37;;;;;;;4.10;1.13;;;;;;;;;;5033991;28;20177;-63
2021/03/17 13:51:03;;;;;;;1.77;1.10;;;;;;;;;;5049365;28;20192;-63
2021/03/17 13:53:29;;;;;;;3.07;1.10;;;;;;;;;;5049642;28;20198;-64
2021/03/17 13:55:55;;;;;;;2.87;1.20;;;;;;;;;;5038427;28;20204;-63
2021/03/17 13:58:21;;;;;;;1.43;1.00;;;;;;;;;;5033574;28;20188;-64
2021/03/17 14:00:47;;;;;;;2.77;1.20;;;;;;;;;;5045394;28;20178;-63
2021/03/17 14:03:13;;;;;;;1.50;1.20;;;;;;;;;;5052984;28;20619;-65
2021/03/17 14:05:40;;;;;;;2.87;1.37;;;;;;;;;;5051739;28;20608;-63
2021/03/17 14:08:07;;;;;;;4.53;1.43;;;;;;;;;;5050978;28;20168;-63
2021/03/17 14:10:34;;;;;;;1.47;1.07;;;;;;;;;;5047307;28;20188;-64
2021/03/17 14:13:00;;;;;;;2.37;1.50;;;;;;;;;;5053547;28;20188;-64
2021/03/17 14:15:29;;;;;;;3.67;1.40;;;;;;;;;;5052298;28;20230;-63
2021/03/17 14:17:56;;;;;;;1.23;0.70;;;;;;;;;;5052904;28;20193;-63
2021/03/17 14:20:24;;;;;;;2.20;1.23;;;;;;;;;;5053660;28;20177;-64
2021/03/17 14:22:50;;;;;;;5.23;1.77;;;;;;;;;;5053499;28;20178;-63
2021/03/17 14:25:16;;;;;;;1.47;1.30;;;;;;;;;;5052748;28;20207;-63
2021/03/17 14:27:43;;;;;;;1.23;0.97;;;;;;;;;;5035627;28;20214;-64
2021/03/17 14:30:10;;;;;;;3.50;1.50;;;;;;;;;;5034874;28;20616;-65
2021/03/17 14:32:36;;;;;;;3.90;1.80;;;;;;;;;;5052972;28;20195;-64
2021/03/17 14:35:03;;;;;;;2.07;1.40;;;;;;;;;;5036759;28;20276;-63
2021/03/17 14:37:29;;;;;;;4.27;1.80;;;;;;;;;;5042148;28;20220;-63
2021/03/17 14:39:55;;;;;;;3.40;1.50;;;;;;;;;;5034558;28;20628;-63
2021/03/17 14:42:21;;;;;;;3.83;1.57;;;;;;;;;;5047361;28;20635;-64
2021/03/17 14:44:47;;;;;;;3.43;1.50;;;;;;;;;;5073410;28;20172;-64
2021/03/17 14:47:14;;;;;;;2.17;1.13;;;;;;;;;;5057426;28;20323;-63
2021/03/17 14:49:40;;;;;;;4.03;1.40;;;;;;;;;;5068386;28;20197;-63
2021/03/17 14:52:06;;;;;;;3.13;1.20;;;;;;;;;;5040458;28;20176;-63
2021/03/17 14:54:33;;;;;;;3.40;1.63;;;;;;;;;;5035900;28;20259;-65
2021/03/17 14:56:59;;;;;;;4.57;1.40;;;;;;;;;;5068192;28;20635;-63